Time;durP1;ratioP1;P1;durP2;ratioP2;P2;SDS_P1;SDS_P2;PMS_P1;PMS_P2;Temp;Humidity;BMP_temperature;BMP_pressure;BME280_temperature;BME280_humidity;BME280_pressure;Samples;Min_cycle;Max_cycle;Signal;HPM_P1;HPM_P2
2021/05/05 00:02:10;;;;;;;6.37;3.50;;;;;;;;;;4955490;28;20479;-63
2021/05/05 00:04:37;;;;;;;6.40;3.50;;;;;;;;;;4955029;28;20575;-63
2021/05/05 00:07:03;;;;;;;4.53;3.40;;;;;;;;;;4956449;28;20453;-63
2021/05/05 00:09:30;;;;;;;4.80;3.10;;;;;;;;;;4954885;28;20473;-63
2021/05/05 00:11:57;;;;;;;5.77;3.30;;;;;;;;;;4956890;28;20460;-63
2021/05/05 00:14:25;;;;;;;3.83;3.27;;;;;;;;;;4953209;28;20496;-63
2021/05/05 00:16:52;;;;;;;5.37;3.27;;;;;;;;;;4955525;28;20468;-63
2021/05/05 00:19:19;;;;;;;4.83;2.87;;;;;;;;;;4955240;28;20963;-63
2021/05/05 00:21:45;;;;;;;5.23;3.07;;;;;;;;;;4955183;28;20537;-63
2021/05/05 00:24:13;;;;;;;6.00;3.27;;;;;;;;;;4955131;28;20495;-63
2021/05/05 00:26:39;;;;;;;3.63;2.80;;;;;;;;;;4955176;28;20466;-63
2021/05/05 00:29:06;;;;;;;5.00;3.10;;;;;;;;;;4955085;28;20963;-63
2021/05/05 00:31:34;;;;;;;4.23;3.13;;;;;;;;;;4955419;29;20472;-63
2021/05/05 00:34:01;;;;;;;6.27;3.83;;;;;;;;;;4954298;28;20984;-64
2021/05/05 00:36:28;;;;;;;6.00;3.60;;;;;;;;;;4955613;28;20855;-63
2021/05/05 00:38:55;;;;;;;5.40;3.37;;;;;;;;;;4954918;28;20813;-63
2021/05/05 00:41:22;;;;;;;4.50;3.87;;;;;;;;;;4956104;28;20483;-64
2021/05/05 00:43:48;;;;;;;4.40;3.10;;;;;;;;;;4955005;28;20507;-63
2021/05/05 00:46:15;;;;;;;4.10;3.70;;;;;;;;;;4954319;28;20464;-63
2021/05/05 00:48:43;;;;;;;6.73;3.50;;;;;;;;;;4954298;28;21038;-64
2021/05/05 00:51:09;;;;;;;6.40;3.77;;;;;;;;;;4955685;28;20456;-63
2021/05/05 00:53:36;;;;;;;5.90;3.43;;;;;;;;;;4954939;28;20472;-64
2021/05/05 00:56:03;;;;;;;6.07;3.20;;;;;;;;;;4954913;28;20534;-63
2021/05/05 00:58:30;;;;;;;5.43;3.27;;;;;;;;;;4954551;28;20881;-64
2021/05/05 01:00:57;;;;;;;6.50;3.93;;;;;;;;;;4955523;28;20463;-64
2021/05/05 01:03:23;;;;;;;5.33;3.80;;;;;;;;;;4955154;28;20460;-64
2021/05/05 01:05:51;;;;;;;6.27;3.70;;;;;;;;;;4955310;28;20472;-63
2021/05/05 01:08:20;;;;;;;3.90;3.37;;;;;;;;;;4954254;28;20526;-63
2021/05/05 01:10:47;;;;;;;5.27;3.50;;;;;;;;;;4953617;29;20523;-64
2021/05/05 01:13:14;;;;;;;6.50;3.30;;;;;;;;;;4952788;28;20465;-64
2021/05/05 01:15:40;;;;;;;6.83;3.37;;;;;;;;;;4953505;28;20510;-64
2021/05/05 01:18:07;;;;;;;4.03;3.07;;;;;;;;;;4954629;28;20473;-64
2021/05/05 01:20:34;;;;;;;5.77;3.07;;;;;;;;;;4952759;28;20472;-63
2021/05/05 01:23:01;;;;;;;4.33;3.10;;;;;;;;;;4953728;28;20506;-63
2021/05/05 01:25:28;;;;;;;4.20;2.80;;;;;;;;;;4954230;28;20468;-63
2021/05/05 01:27:55;;;;;;;4.03;3.23;;;;;;;;;;4954113;28;20472;-64
2021/05/05 01:30:22;;;;;;;4.47;3.23;;;;;;;;;;4954961;28;20452;-63
2021/05/05 01:32:49;;;;;;;3.07;2.77;;;;;;;;;;4954363;28;20491;-64
2021/05/05 01:35:16;;;;;;;7.50;3.03;;;;;;;;;;4954722;28;20522;-64
2021/05/05 01:37:43;;;;;;;3.00;2.77;;;;;;;;;;4951943;29;20514;-64
2021/05/05 01:40:12;;;;;;;5.17;3.00;;;;;;;;;;4954381;28;20448;-64
2021/05/05 01:42:39;;;;;;;4.00;3.03;;;;;;;;;;4941514;28;20968;-63
2021/05/05 01:45:06;;;;;;;4.10;2.73;;;;;;;;;;4953555;28;20823;-63
2021/05/05 01:47:33;;;;;;;5.97;2.53;;;;;;;;;;4953716;28;20472;-63
2021/05/05 01:49:59;;;;;;;5.13;2.90;;;;;;;;;;4953026;28;20472;-64
2021/05/05 01:52:26;;;;;;;4.17;2.67;;;;;;;;;;4966283;23;20472;-64
2021/05/05 01:54:53;;;;;;;3.10;2.60;;;;;;;;;;4970721;28;20479;-63
2021/05/05 01:57:25;;;;;;;4.70;2.90;;;;;;;;;;4972047;28;21075;-63
2021/05/05 01:59:52;;;;;;;4.60;2.57;;;;;;;;;;4966428;28;21077;-62
2021/05/05 02:02:18;;;;;;;3.30;2.93;;;;;;;;;;4973334;28;20460;-63
2021/05/05 02:04:45;;;;;;;3.87;2.83;;;;;;;;;;4955097;28;20471;-65
2021/05/05 02:07:11;;;;;;;3.83;3.30;;;;;;;;;;4954474;28;21069;-64
2021/05/05 02:09:38;;;;;;;4.70;3.33;;;;;;;;;;4954268;28;20441;-64
2021/05/05 02:12:06;;;;;;;4.90;3.10;;;;;;;;;;4953177;28;20964;-64
2021/05/05 02:14:33;;;;;;;4.50;3.20;;;;;;;;;;4954375;28;20461;-63
2021/05/05 02:17:00;;;;;;;4.40;3.27;;;;;;;;;;4953193;28;20476;-65
2021/05/05 02:19:27;;;;;;;5.60;3.00;;;;;;;;;;4952280;28;20472;-64
2021/05/05 02:21:54;;;;;;;3.50;3.20;;;;;;;;;;4954029;28;20456;-64
2021/05/05 02:24:20;;;;;;;4.77;3.60;;;;;;;;;;4953423;28;20499;-63
2021/05/05 02:26:47;;;;;;;5.93;3.87;;;;;;;;;;4954327;28;20891;-63
2021/05/05 02:29:13;;;;;;;3.60;3.27;;;;;;;;;;4953390;28;20472;-61
2021/05/05 02:31:41;;;;;;;4.80;3.77;;;;;;;;;;4952988;28;20476;-65
2021/05/05 02:34:08;;;;;;;4.20;3.80;;;;;;;;;;4953088;28;20480;-63
2021/05/05 02:36:35;;;;;;;5.07;3.50;;;;;;;;;;4952706;28;20484;-63
2021/05/05 02:39:04;;;;;;;3.90;3.23;;;;;;;;;;4953969;28;20448;-63
2021/05/05 02:41:30;;;;;;;3.30;3.00;;;;;;;;;;4952733;28;20468;-67
2021/05/05 02:43:57;;;;;;;5.20;3.70;;;;;;;;;;4956797;28;20482;-63
2021/05/05 02:46:24;;;;;;;3.30;3.00;;;;;;;;;;4959720;28;20478;-62
2021/05/05 02:48:51;;;;;;;6.03;3.50;;;;;;;;;;4959151;28;20452;-61
2021/05/05 02:51:18;;;;;;;3.73;3.37;;;;;;;;;;4959590;28;20476;-61
2021/05/05 02:53:44;;;;;;;4.70;3.23;;;;;;;;;;4958196;28;20861;-64
2021/05/05 02:56:11;;;;;;;4.40;3.13;;;;;;;;;;4960498;28;20867;-62
2021/05/05 02:58:38;;;;;;;7.87;3.57;;;;;;;;;;4958564;28;20482;-62
2021/05/05 03:01:04;;;;;;;8.33;3.30;;;;;;;;;;4960830;28;20479;-65
2021/05/05 03:03:31;;;;;;;4.60;3.30;;;;;;;;;;4957526;28;20492;-63
2021/05/05 03:05:58;;;;;;;8.17;3.53;;;;;;;;;;4960033;28;21002;-63
2021/05/05 03:08:25;;;;;;;4.97;3.10;;;;;;;;;;4958271;28;20480;-62
2021/05/05 03:10:52;;;;;;;5.97;3.40;;;;;;;;;;4960394;28;20459;-65
2021/05/05 03:13:18;;;;;;;6.80;3.97;;;;;;;;;;4954778;28;20858;-61
2021/05/05 03:15:45;;;;;;;3.97;2.87;;;;;;;;;;4955203;28;20494;-64
2021/05/05 03:18:12;;;;;;;3.83;3.20;;;;;;;;;;4960653;28;20452;-62
2021/05/05 03:20:38;;;;;;;5.83;3.20;;;;;;;;;;4959580;28;20478;-63
2021/05/05 03:23:06;;;;;;;4.00;3.00;;;;;;;;;;4960980;28;20472;-63
2021/05/05 03:25:32;;;;;;;4.73;3.30;;;;;;;;;;4960289;28;20600;-62
2021/05/05 03:27:59;;;;;;;3.87;2.53;;;;;;;;;;4961209;29;20468;-64
2021/05/05 03:30:26;;;;;;;3.13;2.83;;;;;;;;;;4964992;28;20862;-62
2021/05/05 03:32:52;;;;;;;6.10;3.40;;;;;;;;;;4968653;28;20480;-65
2021/05/05 03:35:19;;;;;;;4.90;3.40;;;;;;;;;;4967752;28;20515;-64
2021/05/05 03:37:46;;;;;;;5.80;3.60;;;;;;;;;;4962114;28;20863;-65
2021/05/05 03:40:13;;;;;;;6.20;3.63;;;;;;;;;;4961813;28;20452;-66
2021/05/05 03:42:40;;;;;;;5.60;3.37;;;;;;;;;;4958869;28;21018;-65
2021/05/05 03:45:08;;;;;;;3.77;3.47;;;;;;;;;;4960001;28;20467;-64
2021/05/05 03:47:36;;;;;;;4.80;3.30;;;;;;;;;;4959581;28;20466;-62
2021/05/05 03:50:03;;;;;;;3.33;3.03;;;;;;;;;;4959775;28;20472;-63
2021/05/05 03:52:30;;;;;;;3.27;2.97;;;;;;;;;;4959203;28;20488;-64
2021/05/05 03:54:56;;;;;;;4.80;3.40;;;;;;;;;;4957434;28;20480;-62
2021/05/05 03:57:24;;;;;;;4.57;3.60;;;;;;;;;;4956084;28;20483;-62
2021/05/05 03:59:50;;;;;;;6.10;3.27;;;;;;;;;;4956263;28;20515;-62
2021/05/05 04:02:17;;;;;;;3.57;3.27;;;;;;;;;;4955758;28;20551;-62
2021/05/05 04:04:43;;;;;;;5.60;3.60;;;;;;;;;;4956452;28;20498;-63
2021/05/05 04:07:10;;;;;;;3.90;3.20;;;;;;;;;;4956944;28;20464;-63
2021/05/05 04:09:37;;;;;;;4.77;3.47;;;;;;;;;;4954950;28;20476;-64
2021/05/05 04:12:03;;;;;;;4.60;4.10;;;;;;;;;;4957696;28;20464;-64
2021/05/05 04:14:31;;;;;;;7.10;3.63;;;;;;;;;;4956512;28;20906;-64
2021/05/05 04:16:57;;;;;;;5.67;3.77;;;;;;;;;;4951933;29;20836;-62
2021/05/05 04:19:24;;;;;;;4.63;3.40;;;;;;;;;;4958351;28;20472;-64
2021/05/05 04:21:51;;;;;;;5.57;3.90;;;;;;;;;;4960105;28;20471;-63
2021/05/05 04:24:18;;;;;;;6.50;3.80;;;;;;;;;;4958555;28;20499;-63
2021/05/05 04:26:45;;;;;;;4.67;4.17;;;;;;;;;;4959372;28;20468;-63
2021/05/05 04:29:12;;;;;;;7.50;4.40;;;;;;;;;;4960895;28;20559;-67
2021/05/05 04:31:39;;;;;;;4.70;4.10;;;;;;;;;;4970581;28;20476;-63
2021/05/05 04:34:06;;;;;;;5.70;4.30;;;;;;;;;;4970871;28;20484;-64
2021/05/05 04:36:33;;;;;;;6.10;4.07;;;;;;;;;;4969366;28;20539;-63
2021/05/05 04:38:59;;;;;;;5.03;3.97;;;;;;;;;;4970552;28;20486;-63
2021/05/05 04:41:26;;;;;;;4.67;4.07;;;;;;;;;;4970203;28;20569;-64
2021/05/05 04:43:53;;;;;;;6.87;4.10;;;;;;;;;;4968777;28;20480;-65
2021/05/05 04:46:19;;;;;;;5.73;3.57;;;;;;;;;;4963282;28;20474;-64
2021/05/05 04:48:47;;;;;;;4.50;3.83;;;;;;;;;;4960779;28;20463;-64
2021/05/05 04:51:13;;;;;;;6.07;4.00;;;;;;;;;;4959105;28;20475;-64
2021/05/05 04:53:40;;;;;;;6.80;4.10;;;;;;;;;;4957795;28;20909;-63
2021/05/05 04:56:07;;;;;;;6.83;3.97;;;;;;;;;;4958874;28;20570;-63
2021/05/05 04:58:34;;;;;;;5.63;4.17;;;;;;;;;;4957330;28;20472;-65
2021/05/05 05:01:00;;;;;;;8.43;4.70;;;;;;;;;;4958715;28;20452;-65
2021/05/05 05:03:27;;;;;;;5.93;4.40;;;;;;;;;;4958565;28;21003;-65
2021/05/05 05:05:54;;;;;;;4.70;3.97;;;;;;;;;;4961699;28;20464;-65
2021/05/05 05:08:21;;;;;;;7.33;4.30;;;;;;;;;;4960373;28;20480;-62
2021/05/05 05:10:48;;;;;;;9.40;4.40;;;;;;;;;;4967294;28;20495;-64
2021/05/05 05:13:14;;;;;;;5.77;4.27;;;;;;;;;;4970101;28;20491;-64
2021/05/05 05:15:41;;;;;;;7.70;5.00;;;;;;;;;;4971043;28;20482;-63
2021/05/05 05:18:07;;;;;;;5.10;3.90;;;;;;;;;;4969159;28;20460;-64
2021/05/05 05:20:34;;;;;;;6.73;4.63;;;;;;;;;;4967857;28;20464;-64
2021/05/05 05:23:01;;;;;;;6.03;4.50;;;;;;;;;;4966330;28;20559;-63
2021/05/05 05:25:28;;;;;;;4.47;3.77;;;;;;;;;;4964994;28;20476;-64
2021/05/05 05:27:55;;;;;;;8.03;4.73;;;;;;;;;;4965316;28;20472;-64
2021/05/05 05:30:22;;;;;;;4.53;3.90;;;;;;;;;;4960189;28;20452;-63
2021/05/05 05:32:49;;;;;;;7.20;4.33;;;;;;;;;;4954966;28;20908;-63
2021/05/05 05:35:15;;;;;;;5.30;4.10;;;;;;;;;;4954515;28;20542;-62
2021/05/05 05:37:42;;;;;;;6.33;4.20;;;;;;;;;;4954691;28;20471;-62
2021/05/05 05:40:11;;;;;;;6.10;3.03;;;;;;;;;;4954633;28;20963;-63
2021/05/05 05:42:38;;;;;;;10.03;2.93;;;;;;;;;;4953375;28;20531;-62
2021/05/05 05:45:05;;;;;;;4.50;2.83;;;;;;;;;;4953940;28;20472;-63
2021/05/05 05:47:32;;;;;;;3.80;3.10;;;;;;;;;;4954138;28;20963;-65
2021/05/05 05:49:58;;;;;;;7.30;2.27;;;;;;;;;;4952457;28;21037;-65
2021/05/05 05:52:25;;;;;;;3.60;2.47;;;;;;;;;;4953206;28;20476;-65
2021/05/05 05:54:52;;;;;;;3.63;2.00;;;;;;;;;;4954565;28;20460;-65
2021/05/05 05:57:19;;;;;;;5.47;2.00;;;;;;;;;;4953139;28;20879;-65
2021/05/05 05:59:46;;;;;;;3.60;1.87;;;;;;;;;;4954262;28;20457;-65
2021/05/05 06:02:12;;;;;;;3.20;1.60;;;;;;;;;;4951922;28;20901;-66
2021/05/05 06:04:39;;;;;;;5.37;2.60;;;;;;;;;;4954099;28;20519;-65
2021/05/05 06:07:06;;;;;;;4.07;1.90;;;;;;;;;;4954316;28;20441;-65
2021/05/05 06:09:32;;;;;;;2.03;1.50;;;;;;;;;;4953748;28;20795;-65
2021/05/05 06:11:59;;;;;;;5.93;1.43;;;;;;;;;;4953884;29;20826;-65
2021/05/05 06:14:26;;;;;;;3.57;1.70;;;;;;;;;;4953829;28;20480;-65
2021/05/05 06:16:53;;;;;;;2.17;1.43;;;;;;;;;;4952369;28;20488;-65
2021/05/05 06:19:19;;;;;;;3.37;1.70;;;;;;;;;;4952909;28;20477;-65
2021/05/05 06:21:46;;;;;;;3.93;2.20;;;;;;;;;;4953736;28;20970;-65
2021/05/05 06:24:13;;;;;;;3.73;1.63;;;;;;;;;;4953314;28;20498;-66
2021/05/05 06:26:39;;;;;;;4.07;1.63;;;;;;;;;;4952260;28;20604;-65
2021/05/05 06:29:06;;;;;;;7.17;3.73;;;;;;;;;;4952929;29;20979;-65
2021/05/05 06:31:33;;;;;;;8.17;3.90;;;;;;;;;;4953480;28;20464;-64
2021/05/05 06:34:00;;;;;;;7.03;4.23;;;;;;;;;;4953741;28;20479;-63
2021/05/05 06:36:27;;;;;;;8.07;4.10;;;;;;;;;;4954327;28;20487;-63
2021/05/05 06:38:53;;;;;;;5.03;3.97;;;;;;;;;;4954080;29;20456;-62
2021/05/05 06:41:20;;;;;;;5.73;3.80;;;;;;;;;;4949249;28;20789;-64
2021/05/05 06:43:47;;;;;;;6.50;4.37;;;;;;;;;;4950189;29;20550;-62
2021/05/05 06:46:13;;;;;;;6.00;4.30;;;;;;;;;;4953594;28;20463;-65
2021/05/05 06:48:41;;;;;;;6.13;3.80;;;;;;;;;;4953819;28;20455;-67
2021/05/05 06:51:07;;;;;;;5.53;4.43;;;;;;;;;;4953752;28;20487;-64
2021/05/05 06:53:34;;;;;;;6.70;4.00;;;;;;;;;;4953967;28;20486;-62
2021/05/05 06:56:01;;;;;;;8.13;4.20;;;;;;;;;;4954867;28;20634;-62
2021/05/05 06:58:27;;;;;;;7.73;4.20;;;;;;;;;;4954527;28;20837;-61
2021/05/05 07:00:54;;;;;;;5.87;4.07;;;;;;;;;;4954315;28;20449;-61
2021/05/05 07:03:21;;;;;;;5.63;4.20;;;;;;;;;;4953294;28;20483;-61
2021/05/05 07:05:48;;;;;;;5.83;3.87;;;;;;;;;;4953628;28;20881;-61
2021/05/05 07:08:15;;;;;;;5.27;4.20;;;;;;;;;;4954110;28;20466;-61
2021/05/05 07:10:41;;;;;;;6.13;3.70;;;;;;;;;;4954065;28;20456;-62
2021/05/05 07:13:08;;;;;;;6.33;4.10;;;;;;;;;;4954283;28;20476;-61
2021/05/05 07:15:35;;;;;;;7.57;4.20;;;;;;;;;;4956381;28;21003;-62
2021/05/05 07:18:02;;;;;;;4.40;4.00;;;;;;;;;;4960270;28;20468;-62
2021/05/05 07:20:28;;;;;;;4.77;4.27;;;;;;;;;;4943183;28;20483;-62
2021/05/05 07:22:56;;;;;;;7.33;4.73;;;;;;;;;;4958842;28;21077;-62
2021/05/05 07:25:22;;;;;;;5.77;4.57;;;;;;;;;;4955483;28;20495;-62
2021/05/05 07:27:49;;;;;;;5.77;5.00;;;;;;;;;;4956673;29;20547;-62
2021/05/05 07:30:16;;;;;;;6.03;4.30;;;;;;;;;;4956450;28;20451;-62
2021/05/05 07:32:43;;;;;;;4.60;4.20;;;;;;;;;;4957185;28;20555;-62
2021/05/05 07:35:10;;;;;;;5.40;4.90;;;;;;;;;;4958071;28;20468;-61
2021/05/05 07:38:05;;;;;;;6.73;4.50;;;;;;;;;;4956829;28;20449;-62
2021/05/05 07:46:12;;;;;;;5.63;4.10;;;;;;;;;;4957205;28;20444;-62
2021/05/05 07:48:41;;;;;;;7.90;4.50;;;;;;;;;;4957183;28;20471;-62
2021/05/05 07:51:08;;;;;;;4.30;3.90;;;;;;;;;;4954185;28;20456;-62
2021/05/05 07:53:36;;;;;;;10.40;5.30;;;;;;;;;;4953878;28;20492;-62
2021/05/05 07:56:04;;;;;;;10.93;5.20;;;;;;;;;;4951670;29;20488;-62
2021/05/05 07:58:30;;;;;;;4.77;4.30;;;;;;;;;;4992584;23;20540;-65
2021/05/05 08:00:57;;;;;;;4.83;4.43;;;;;;;;;;4984177;28;20439;-65
2021/05/05 08:03:24;;;;;;;6.13;4.40;;;;;;;;;;4982676;28;20807;-65
2021/05/05 08:05:50;;;;;;;5.67;4.50;;;;;;;;;;4975506;28;20867;-64
2021/05/05 08:08:17;;;;;;;6.80;4.60;;;;;;;;;;4977981;28;20471;-65
2021/05/05 08:10:44;;;;;;;5.50;5.00;;;;;;;;;;4994322;28;20474;-65
2021/05/05 08:13:12;;;;;;;5.97;5.37;;;;;;;;;;4994992;28;20501;-65
2021/05/05 08:15:39;;;;;;;5.73;5.00;;;;;;;;;;4993688;28;20510;-64
2021/05/05 08:18:06;;;;;;;6.33;4.70;;;;;;;;;;4994273;28;20476;-65
2021/05/05 08:20:34;;;;;;;6.20;5.00;;;;;;;;;;4975278;28;20455;-65
2021/05/05 08:23:01;;;;;;;8.50;4.77;;;;;;;;;;4987994;28;20462;-66
2021/05/05 08:25:27;;;;;;;8.30;4.80;;;;;;;;;;4981504;28;20942;-65
2021/05/05 08:27:54;;;;;;;7.27;5.30;;;;;;;;;;4993380;28;20478;-65
2021/05/05 08:30:22;;;;;;;9.33;4.20;;;;;;;;;;4994661;28;20830;-65
2021/05/05 08:32:49;;;;;;;10.43;5.70;;;;;;;;;;4996903;28;20458;-68
2021/05/05 08:35:16;;;;;;;9.07;5.83;;;;;;;;;;4997190;28;20477;-68
2021/05/05 08:37:42;;;;;;;8.13;5.83;;;;;;;;;;4999205;28;20716;-68
2021/05/05 08:40:11;;;;;;;8.60;6.40;;;;;;;;;;4998473;28;20889;-68
2021/05/05 08:42:38;;;;;;;11.40;5.20;;;;;;;;;;4999547;28;20461;-68
2021/05/05 08:45:06;;;;;;;6.50;5.27;;;;;;;;;;4998592;28;20462;-68
2021/05/05 08:47:34;;;;;;;6.23;5.43;;;;;;;;;;4999163;28;21024;-68
2021/05/05 08:50:02;;;;;;;9.27;5.33;;;;;;;;;;4997589;28;20448;-68
2021/05/05 08:52:28;;;;;;;10.87;5.23;;;;;;;;;;4979151;28;20498;-68
2021/05/05 08:54:55;;;;;;;8.17;5.70;;;;;;;;;;4987830;28;20451;-68
2021/05/05 08:57:22;;;;;;;6.33;4.60;;;;;;;;;;4996838;28;20494;-70
2021/05/05 08:59:48;;;;;;;8.83;5.07;;;;;;;;;;4997147;28;21024;-70
2021/05/05 09:02:15;;;;;;;9.20;4.77;;;;;;;;;;4996798;28;20447;-68
2021/05/05 09:04:55;;;;;;;6.77;5.00;;;;;;;;;;4979565;28;20526;-68
2021/05/05 09:07:28;;;;;;;8.73;5.67;;;;;;;;;;4992600;28;20474;-68
2021/05/05 09:09:55;;;;;;;7.33;5.40;;;;;;;;;;4994129;28;20434;-67
2021/05/05 09:12:23;;;;;;;9.90;5.60;;;;;;;;;;4988662;28;20446;-68
2021/05/05 09:14:50;;;;;;;10.13;5.73;;;;;;;;;;4990532;28;20496;-68
2021/05/05 09:17:18;;;;;;;8.97;5.87;;;;;;;;;;4981716;28;20493;-68
2021/05/05 09:19:45;;;;;;;5.80;5.20;;;;;;;;;;4985151;28;20462;-68
2021/05/05 09:22:12;;;;;;;6.37;3.80;;;;;;;;;;4993710;28;20454;-68
2021/05/05 09:24:39;;;;;;;4.90;4.40;;;;;;;;;;4986163;28;20459;-68
2021/05/05 09:27:07;;;;;;;4.80;4.30;;;;;;;;;;4973723;28;20518;-67
2021/05/05 09:29:41;;;;;;;6.70;4.73;;;;;;;;;;4981953;28;20461;-67
2021/05/05 09:32:08;;;;;;;7.50;5.30;;;;;;;;;;4994732;28;20461;-67
2021/05/05 09:34:35;;;;;;;6.33;5.20;;;;;;;;;;4991424;28;20458;-67
2021/05/05 09:37:03;;;;;;;6.27;4.40;;;;;;;;;;4981261;28;20491;-67
2021/05/05 09:39:31;;;;;;;5.60;4.30;;;;;;;;;;4974352;28;20878;-67
2021/05/05 09:41:58;;;;;;;9.40;4.40;;;;;;;;;;4981162;28;20452;-67
2021/05/05 09:44:26;;;;;;;5.57;4.33;;;;;;;;;;4982298;28;20455;-68
2021/05/05 09:46:54;;;;;;;4.67;4.20;;;;;;;;;;4977269;28;20462;-67
2021/05/05 09:49:22;;;;;;;6.90;4.40;;;;;;;;;;4982369;28;20498;-68
2021/05/05 09:51:50;;;;;;;4.87;4.33;;;;;;;;;;4976536;28;20458;-67
2021/05/05 09:54:24;;;;;;;7.50;4.30;;;;;;;;;;4992413;28;20936;-63
2021/05/05 09:56:51;;;;;;;5.40;4.33;;;;;;;;;;4992048;28;20485;-68
2021/05/05 09:59:19;;;;;;;4.67;4.27;;;;;;;;;;4993221;28;20978;-68
2021/05/05 10:01:59;;;;;;;6.10;5.27;;;;;;;;;;4991879;28;20450;-65
2021/05/05 10:04:26;;;;;;;8.20;5.10;;;;;;;;;;4973628;28;20427;-66
2021/05/05 10:06:57;;;;;;;6.20;5.07;;;;;;;;;;4973590;28;20519;-65
2021/05/05 10:09:24;;;;;;;6.80;4.60;;;;;;;;;;4987869;28;20465;-65
2021/05/05 10:11:51;;;;;;;5.43;4.87;;;;;;;;;;4990566;28;20444;-64
2021/05/05 10:14:19;;;;;;;5.73;4.73;;;;;;;;;;4975696;28;20454;-64
2021/05/05 10:16:47;;;;;;;5.77;4.30;;;;;;;;;;4980826;28;20490;-65
2021/05/05 10:19:15;;;;;;;7.50;4.83;;;;;;;;;;4986764;28;20459;-64
2021/05/05 10:21:47;;;;;;;6.97;4.30;;;;;;;;;;4981438;28;20462;-65
2021/05/05 10:24:14;;;;;;;6.10;4.23;;;;;;;;;;4992394;28;20450;-65
2021/05/05 10:26:43;;;;;;;4.30;3.80;;;;;;;;;;4987574;28;20489;-65
2021/05/05 10:29:10;;;;;;;4.73;3.80;;;;;;;;;;4991309;28;20490;-65
2021/05/05 10:31:37;;;;;;;8.00;3.53;;;;;;;;;;4991751;28;21041;-64
2021/05/05 10:34:10;;;;;;;5.83;3.43;;;;;;;;;;4990949;28;20545;-65
2021/05/05 10:36:39;;;;;;;3.90;3.50;;;;;;;;;;4979664;28;20475;-64
2021/05/05 10:39:25;;;;;;;6.20;3.87;;;;;;;;;;4991441;28;20467;-65
2021/05/05 10:42:01;;;;;;;5.10;3.70;;;;;;;;;;4993385;28;20459;-65
2021/05/05 10:44:34;;;;;;;7.60;3.63;;;;;;;;;;4985251;28;20454;-65
2021/05/05 10:47:10;;;;;;;5.03;3.83;;;;;;;;;;4974678;28;20443;-64
2021/05/05 10:50:03;;;;;;;4.57;3.73;;;;;;;;;;4988760;28;20968;-64
2021/05/05 10:52:30;;;;;;;6.13;3.57;;;;;;;;;;4992530;28;20453;-64
2021/05/05 10:54:57;;;;;;;5.33;3.20;;;;;;;;;;4988278;28;20466;-63
2021/05/05 10:57:25;;;;;;;6.10;3.30;;;;;;;;;;4992049;28;20489;-64
2021/05/05 11:00:10;;;;;;;4.50;2.87;;;;;;;;;;4991564;28;20443;-64
2021/05/05 11:02:51;;;;;;;4.30;2.93;;;;;;;;;;4992027;28;20477;-63
2021/05/05 11:05:19;;;;;;;6.63;3.43;;;;;;;;;;4988157;28;20963;-65
2021/05/05 11:07:52;;;;;;;5.50;3.60;;;;;;;;;;4995221;28;20844;-64
2021/05/05 11:10:37;;;;;;;5.63;3.47;;;;;;;;;;4996100;28;20546;-64
2021/05/05 11:13:05;;;;;;;5.03;4.00;;;;;;;;;;4985654;28;20447;-64
2021/05/05 11:15:47;;;;;;;4.60;3.60;;;;;;;;;;4976187;28;20443;-64
2021/05/05 11:18:42;;;;;;;6.37;4.30;;;;;;;;;;4985392;28;20467;-63
2021/05/05 11:21:09;;;;;;;6.43;4.30;;;;;;;;;;4976738;28;20435;-64
2021/05/05 11:23:45;;;;;;;3.90;3.70;;;;;;;;;;4977035;28;20451;-64
2021/05/05 11:26:19;;;;;;;3.97;3.67;;;;;;;;;;4988654;28;20451;-64
2021/05/05 11:28:55;;;;;;;6.40;3.70;;;;;;;;;;4977325;28;20471;-64
2021/05/05 11:31:21;;;;;;;5.10;4.23;;;;;;;;;;4993876;28;20500;-63
2021/05/05 11:33:57;;;;;;;4.47;3.57;;;;;;;;;;4985500;28;20447;-65
2021/05/05 11:36:24;;;;;;;5.00;3.60;;;;;;;;;;4988729;28;20475;-65
2021/05/05 11:38:51;;;;;;;4.20;3.37;;;;;;;;;;4982152;28;20470;-67
2021/05/05 11:41:21;;;;;;;3.80;3.50;;;;;;;;;;4979987;28;20871;-67
2021/05/05 11:43:48;;;;;;;3.53;3.23;;;;;;;;;;4989578;28;20510;-67
2021/05/05 11:46:16;;;;;;;4.40;3.70;;;;;;;;;;4976933;28;20447;-67
2021/05/05 11:48:43;;;;;;;4.33;3.93;;;;;;;;;;4976360;28;20831;-67
2021/05/05 11:51:30;;;;;;;3.57;3.27;;;;;;;;;;4990346;28;20446;-64
2021/05/05 11:53:57;;;;;;;3.60;3.30;;;;;;;;;;4985212;28;20463;-64
2021/05/05 11:56:25;;;;;;;3.50;3.20;;;;;;;;;;4976400;28;20502;-66
2021/05/05 11:58:59;;;;;;;3.70;3.40;;;;;;;;;;4975841;28;20827;-67
2021/05/05 12:01:33;;;;;;;4.87;3.77;;;;;;;;;;4975671;28;20462;-66
2021/05/05 12:04:13;;;;;;;23.93;21.73;;;;;;;;;;4979377;28;20517;-66
2021/05/05 12:06:54;;;;;;;4.07;3.87;;;;;;;;;;4992105;28;20460;-67
2021/05/05 12:09:21;;;;;;;7.03;6.43;;;;;;;;;;4994261;28;20450;-65
2021/05/05 12:11:48;;;;;;;5.83;5.37;;;;;;;;;;4993210;28;20825;-64
2021/05/05 12:14:27;;;;;;;3.63;3.43;;;;;;;;;;4994482;28;20481;-65
2021/05/05 12:16:57;;;;;;;3.87;3.60;;;;;;;;;;4973932;28;20541;-65
2021/05/05 12:19:25;;;;;;;3.50;3.10;;;;;;;;;;4975852;28;20460;-65
2021/05/05 12:21:51;;;;;;;4.17;3.73;;;;;;;;;;4993620;28;20462;-65
2021/05/05 12:24:18;;;;;;;4.10;3.70;;;;;;;;;;4985099;28;20451;-65
2021/05/05 12:26:45;;;;;;;3.60;3.33;;;;;;;;;;4975459;28;20531;-66
2021/05/05 12:29:16;;;;;;;3.77;3.47;;;;;;;;;;4974903;28;20947;-67
2021/05/05 12:31:45;;;;;;;4.40;4.00;;;;;;;;;;4976833;28;20454;-68
2021/05/05 12:34:12;;;;;;;3.87;3.43;;;;;;;;;;4982607;28;20831;-66
2021/05/05 12:36:42;;;;;;;4.07;3.27;;;;;;;;;;4984726;28;20489;-68
2021/05/05 12:39:12;;;;;;;3.17;2.97;;;;;;;;;;4989607;28;20474;-67
2021/05/05 12:41:43;;;;;;;4.03;3.73;;;;;;;;;;4993685;28;20451;-67
2021/05/05 12:44:09;;;;;;;4.20;3.80;;;;;;;;;;4990463;28;20447;-68
2021/05/05 12:46:54;;;;;;;3.37;3.07;;;;;;;;;;4992329;28;20462;-68
2021/05/05 12:49:25;;;;;;;4.27;3.87;;;;;;;;;;4986785;28;20959;-68
2021/05/05 12:51:52;;;;;;;3.87;3.50;;;;;;;;;;4984462;28;20474;-67
2021/05/05 12:54:24;;;;;;;3.70;3.40;;;;;;;;;;4975441;28;20460;-66
2021/05/05 12:56:51;;;;;;;6.37;4.30;;;;;;;;;;4981935;28;20486;-66
2021/05/05 12:59:19;;;;;;;3.87;3.53;;;;;;;;;;4989763;28;20481;-66
2021/05/05 13:01:45;;;;;;;3.80;3.40;;;;;;;;;;4977056;28;20466;-67
2021/05/05 13:04:12;;;;;;;5.03;3.50;;;;;;;;;;4992056;28;20462;-67
2021/05/05 13:06:44;;;;;;;6.80;3.50;;;;;;;;;;4993219;28;20450;-67
2021/05/05 13:09:13;;;;;;;5.97;3.83;;;;;;;;;;4991178;28;20454;-66
2021/05/05 13:11:42;;;;;;;4.33;3.43;;;;;;;;;;4993835;28;20465;-67
2021/05/05 13:14:10;;;;;;;5.50;4.90;;;;;;;;;;4992398;28;20451;-67
2021/05/05 13:17:04;;;;;;;4.33;4.00;;;;;;;;;;4993496;28;20489;-67
2021/05/05 13:19:45;;;;;;;4.40;3.80;;;;;;;;;;4980889;28;20534;-67
2021/05/05 13:30:45;;;;;;;5.63;4.07;;;;;;;;;;4954772;28;20439;-67
2021/05/05 13:33:18;;;;;;;7.43;4.73;;;;;;;;;;4973128;28;20482;-67
2021/05/05 13:35:52;;;;;;;4.97;4.30;;;;;;;;;;4992944;28;20541;-69
2021/05/05 13:38:25;;;;;;;4.27;3.87;;;;;;;;;;4974079;28;20474;-69
2021/05/05 13:40:55;;;;;;;6.60;4.70;;;;;;;;;;4973867;28;20458;-69
2021/05/05 13:43:26;;;;;;;4.93;4.40;;;;;;;;;;4987688;28;20494;-69
2021/05/05 13:46:01;;;;;;;6.57;4.60;;;;;;;;;;4973623;28;20443;-68
2021/05/05 13:48:46;;;;;;;5.10;4.37;;;;;;;;;;4974967;28;20594;-69
2021/05/05 13:51:14;;;;;;;5.07;4.57;;;;;;;;;;4974194;28;20458;-68
2021/05/05 13:53:46;;;;;;;5.53;4.40;;;;;;;;;;4977491;28;20450;-65
2021/05/05 13:56:13;;;;;;;5.13;4.10;;;;;;;;;;4986635;28;20514;-67
2021/05/05 13:58:39;;;;;;;9.53;4.10;;;;;;;;;;4977621;23;705386;-64
2021/05/05 14:01:06;;;;;;;6.83;4.07;;;;;;;;;;4963234;28;20219;-71
2021/05/05 14:03:33;;;;;;;8.43;4.43;;;;;;;;;;4961377;28;20457;-67
2021/05/05 14:05:59;;;;;;;5.47;4.30;;;;;;;;;;4970898;28;20444;-67
2021/05/05 14:08:27;;;;;;;5.47;4.67;;;;;;;;;;4977188;28;20475;-66
2021/05/05 14:10:55;;;;;;;12.10;4.80;;;;;;;;;;4961990;28;20452;-69
2021/05/05 14:13:22;;;;;;;7.93;4.47;;;;;;;;;;4974755;28;20448;-66
2021/05/05 14:15:50;;;;;;;7.37;4.53;;;;;;;;;;4973615;28;20941;-72
2021/05/05 14:18:17;;;;;;;6.87;5.10;;;;;;;;;;4961332;28;20482;-71
2021/05/05 14:20:44;;;;;;;8.30;5.00;;;;;;;;;;4960661;28;20456;-67
2021/05/05 14:23:11;;;;;;;6.77;4.60;;;;;;;;;;4956820;28;20456;-67
2021/05/05 14:25:38;;;;;;;7.37;4.53;;;;;;;;;;4963591;28;20854;-71
2021/05/05 14:28:06;;;;;;;5.10;3.87;;;;;;;;;;4962018;28;20471;-67
2021/05/05 14:30:34;;;;;;;5.33;4.00;;;;;;;;;;4974395;28;20451;-66
2021/05/05 14:33:01;;;;;;;4.33;3.60;;;;;;;;;;4961094;28;20464;-66
2021/05/05 14:35:27;;;;;;;6.17;4.13;;;;;;;;;;4955020;29;20532;-68
2021/05/05 14:37:59;;;;;;;5.70;4.20;;;;;;;;;;4959316;28;20501;-66
2021/05/05 14:40:25;;;;;;;5.37;4.10;;;;;;;;;;4961609;28;20487;-67
2021/05/05 14:42:57;;;;;;;6.03;4.67;;;;;;;;;;4963640;28;20534;-69
2021/05/05 14:48:16;;;;;;;9.13;4.73;;;;;;;;;;4959058;28;20456;-69
2021/05/05 14:50:45;;;;;;;6.73;4.60;;;;;;;;;;4964094;28;20499;-69
2021/05/05 14:53:12;;;;;;;6.00;4.10;;;;;;;;;;4963372;28;20460;-72
2021/05/05 14:55:38;;;;;;;9.93;4.07;;;;;;;;;;4962062;28;20520;-70
2021/05/05 14:58:08;;;;;;;6.50;3.30;;;;;;;;;;4981126;28;20510;-67
2021/05/05 15:00:38;;;;;;;7.17;4.93;;;;;;;;;;4984407;28;20456;-70
2021/05/05 15:03:05;;;;;;;10.80;5.60;;;;;;;;;;4964837;28;20448;-66
2021/05/05 15:05:32;;;;;;;7.40;4.50;;;;;;;;;;4964607;28;20481;-70
2021/05/05 15:08:01;;;;;;;10.00;4.60;;;;;;;;;;4959625;28;20459;-64